Burchard, Nebraska
Current Conditions -  °F | °C
As of 2:55 AM on Saturday 22 Nov 2014 (Local Time) from KBIE Reporting Station
Haze Haze  
Wind Chill: 31°   Ceiling: 400
Heat Index: 38°   Visibility: 4mi
Dew Point: 37°   Wind: 10mph
Humidity: 97%   Direction: 210°SSW
Pressure: 29.95"   Gusts: NA
Location:  40.15°N, 96.35°W
Report Text: KBIE 220855Z AUTO 21009KT 4SM BR OVC004 03/03 A2995 RMK AO2 T00330029
Loading
Personal Weather Stations






























Interactive Weather Map New forecast layout! Learn more

10-Day Weather Forecast

Advertisements
Track Severe Weather on mobile